Aviation Digital Data Service (ADDS)

Output produced by TAFs form (0333 UTC 30 May 2017)
found at http://www.aviationweather.gov/adds/tafs/
 
KPSF 292347Z 3000/3024 VRB03KT P6SM OVC015 
     FM300600 00000KT 4SM BR OVC007 
     TEMPO 3007/3010 2SM BR OVC003 
     FM301100 15004KT P6SM SCT007 OVC015 
     FM301500 17007KT P6SM BKN015 OVC025 
     FM302000 17010G18KT P6SM VCSH OVC025 AMD NOT SKED